createdAt,value
2018-09-28T00:01:23.486Z,100366.00
2018-09-28T00:03:51.056Z,100362.00
2018-09-28T00:06:19.058Z,100359.00
2018-09-28T00:08:46.718Z,100364.00
2018-09-28T00:11:14.291Z,100361.00
2018-09-28T00:13:42.154Z,100359.00
2018-09-28T00:16:09.829Z,100359.00
2018-09-28T00:18:37.390Z,100356.00
2018-09-28T00:21:05.176Z,100352.00
2018-09-28T00:23:32.714Z,100356.00
2018-09-28T00:26:00.297Z,100348.00
2018-09-28T00:28:28.071Z,100348.00
2018-09-28T00:30:56.072Z,100344.00
2018-09-28T00:33:23.675Z,100340.00
2018-09-28T00:35:51.211Z,100337.00
2018-09-28T00:38:18.791Z,100338.00
2018-09-28T00:40:46.674Z,100336.00
2018-09-28T00:43:14.275Z,100338.00
2018-09-28T00:45:41.770Z,100339.00
2018-09-28T00:48:09.615Z,100341.00
2018-09-28T00:50:37.178Z,100336.00
2018-09-28T00:53:05.042Z,100331.00
2018-09-28T00:55:32.597Z,100326.00
2018-09-28T00:58:00.171Z,100328.00
2018-09-28T01:00:27.739Z,100321.00
2018-09-28T01:02:55.289Z,100321.00
2018-09-28T01:05:22.858Z,100318.00
2018-09-28T01:07:50.793Z,100320.00
2018-09-28T01:10:18.319Z,100320.00
2018-09-28T01:12:45.897Z,100317.00
2018-09-28T01:15:13.495Z,100316.00
2018-09-28T01:17:41.065Z,100316.00
2018-09-28T01:20:08.682Z,100312.00
2018-09-28T01:22:36.542Z,100307.00
2018-09-28T01:25:04.126Z,100304.00
2018-09-28T01:27:31.658Z,100299.00
2018-09-28T01:29:59.540Z,100297.00
2018-09-28T01:32:27.590Z,100293.00
2018-09-28T01:34:55.111Z,100293.00
2018-09-28T01:37:22.866Z,100299.00
2018-09-28T01:39:50.451Z,100293.00
2018-09-28T01:42:18.022Z,100293.00
2018-09-28T01:44:45.970Z,100293.00
2018-09-28T01:47:13.553Z,100293.00
2018-09-28T01:49:41.086Z,100297.00
2018-09-28T01:52:09.062Z,100294.00
2018-09-28T01:54:36.675Z,100291.00
2018-09-28T01:57:04.204Z,100287.00
2018-09-28T01:59:31.759Z,100284.00
2018-09-28T02:01:59.320Z,100276.00
2018-09-28T02:04:27.139Z,100277.00
2018-09-28T02:06:54.636Z,100275.00
2018-09-28T02:09:22.253Z,100284.00
2018-09-28T02:11:50.309Z,100281.00
2018-09-28T02:14:27.534Z,100284.00
2018-09-28T02:16:55.807Z,100275.00
2018-09-28T02:19:23.880Z,100271.00
2018-09-28T02:21:51.512Z,100270.00
2018-09-28T02:24:19.388Z,100272.00
2018-09-28T02:26:47.047Z,100279.00
2018-09-28T02:29:14.668Z,100275.00
2018-09-28T02:31:42.322Z,100277.00
2018-09-28T02:34:09.938Z,100274.00
2018-09-28T02:36:37.633Z,100266.00
2018-09-28T02:39:05.982Z,100266.00
2018-09-28T02:41:33.785Z,100268.00
2018-09-28T02:44:01.473Z,100266.00
2018-09-28T02:46:29.721Z,100265.00
2018-09-28T02:48:57.444Z,100258.00
2018-09-28T02:51:25.081Z,100262.00
2018-09-28T02:53:53.125Z,100261.00
2018-09-28T02:56:20.763Z,100257.00
2018-09-28T02:58:48.427Z,100255.00
2018-09-28T03:01:16.333Z,100255.00
2018-09-28T03:03:44.049Z,100257.00
2018-09-28T03:06:11.758Z,100261.00
2018-09-28T03:08:39.432Z,100252.00
2018-09-28T03:11:07.116Z,100256.00
2018-09-28T03:13:34.973Z,100255.00
2018-09-28T03:16:02.664Z,100255.00
2018-09-28T03:18:30.274Z,100257.00
2018-09-28T03:20:58.609Z,100257.00
2018-09-28T03:23:26.259Z,100261.00
2018-09-28T03:25:53.901Z,100261.00
2018-09-28T03:28:22.002Z,100258.00
2018-09-28T03:30:49.979Z,100260.00
2018-09-28T03:33:17.708Z,100261.00
2018-09-28T03:35:45.393Z,100260.00
2018-09-28T03:38:13.056Z,100258.00
2018-09-28T03:40:40.858Z,100258.00
2018-09-28T03:43:08.469Z,100256.00
2018-09-28T03:45:36.129Z,100264.00
2018-09-28T03:48:03.921Z,100268.00
2018-09-28T03:50:31.586Z,100271.00
2018-09-28T03:52:59.250Z,100277.00
2018-09-28T03:55:26.921Z,100276.00
2018-09-28T03:57:54.555Z,100277.00
2018-09-28T04:00:22.215Z,100283.00
2018-09-28T04:02:50.147Z,100278.00
2018-09-28T04:05:17.730Z,100278.00
2018-09-28T04:07:45.427Z,100280.00
2018-09-28T04:10:13.374Z,100282.00
2018-09-28T04:12:41.004Z,100283.00
2018-09-28T04:15:08.668Z,100280.00
2018-09-28T04:17:36.321Z,100287.00
2018-09-28T04:20:04.090Z,100287.00
2018-09-28T04:22:31.701Z,100288.00
2018-09-28T04:24:59.478Z,100280.00
2018-09-28T04:27:27.080Z,100280.00
2018-09-28T04:29:54.730Z,100279.00
2018-09-28T04:32:22.673Z,100280.00
2018-09-28T04:34:50.786Z,100278.00
2018-09-28T04:37:18.960Z,100281.00
2018-09-28T04:39:46.760Z,100277.00
2018-09-28T04:42:14.397Z,100281.00
2018-09-28T04:44:42.039Z,100285.00
2018-09-28T04:47:09.977Z,100283.00
2018-09-28T04:52:12.971Z,100289.00
2018-09-28T04:54:40.641Z,100290.00
2018-09-28T04:57:08.269Z,100293.00
2018-09-28T04:59:36.849Z,100295.00
2018-09-28T05:02:04.603Z,100295.00
2018-09-28T05:04:32.267Z,100301.00
2018-09-28T05:07:00.029Z,100302.00
2018-09-28T05:09:27.673Z,100298.00
2018-09-28T05:11:55.320Z,100307.00
2018-09-28T05:14:23.357Z,100313.00
2018-09-28T05:16:51.048Z,100307.00
2018-09-28T05:19:18.702Z,100320.00
2018-09-28T05:21:46.606Z,100326.00
2018-09-28T05:24:14.248Z,100321.00
2018-09-28T05:26:41.938Z,100327.00
2018-09-28T05:29:09.885Z,100330.00
2018-09-28T05:31:37.582Z,100333.00
2018-09-28T05:34:05.295Z,100331.00
2018-09-28T05:36:33.265Z,100336.00
2018-09-28T05:39:01.002Z,100339.00
2018-09-28T05:41:28.585Z,100331.00
2018-09-28T05:43:56.130Z,100327.00
2018-09-28T05:46:23.902Z,100324.00
2018-09-28T05:48:51.485Z,100329.00
2018-09-28T05:51:19.309Z,100329.00
2018-09-28T05:53:47.024Z,100327.00
2018-09-28T05:56:14.590Z,100339.00
2018-09-28T05:58:47.965Z,100339.00
2018-09-28T06:01:21.978Z,100337.00
2018-09-28T06:04:56.747Z,100344.00
2018-09-28T06:07:24.291Z,100342.00
2018-09-28T06:09:51.923Z,100339.00
2018-09-28T06:12:19.708Z,100340.00
2018-09-28T06:14:47.250Z,100340.00
2018-09-28T06:17:14.770Z,100343.00
2018-09-28T06:19:42.750Z,100337.00
2018-09-28T06:22:10.307Z,100347.00
2018-09-28T06:24:37.798Z,100339.00
2018-09-28T06:27:05.990Z,100339.00
2018-09-28T06:29:33.559Z,100337.00
2018-09-28T06:32:01.358Z,100349.00
2018-09-28T06:34:29.147Z,100342.00
2018-09-28T06:36:57.178Z,100347.00
2018-09-28T06:39:24.727Z,100350.00
2018-09-28T06:41:52.524Z,100350.00
2018-09-28T06:44:19.994Z,100352.00
2018-09-28T06:46:47.514Z,100355.00
2018-09-28T06:49:15.227Z,100357.00
2018-09-28T06:51:42.734Z,100349.00
2018-09-28T06:54:10.236Z,100353.00
2018-09-28T06:56:37.967Z,100356.00
2018-09-28T06:59:12.710Z,100350.00
2018-09-28T07:01:40.276Z,100358.00
2018-09-28T07:04:07.789Z,100363.00
2018-09-28T07:06:35.369Z,100365.00
2018-09-28T07:09:31.683Z,100371.00
2018-09-28T07:11:59.397Z,100368.00
2018-09-28T07:14:28.118Z,100356.00
2018-09-28T07:16:55.929Z,100364.00
2018-09-28T07:19:23.486Z,100369.00
2018-09-28T07:21:51.010Z,100372.00
2018-09-28T07:24:18.643Z,100362.00
2018-09-28T07:26:46.127Z,100364.00
2018-09-28T07:29:13.841Z,100375.00
2018-09-28T07:31:41.419Z,100381.00
2018-09-28T07:34:08.914Z,100385.00
2018-09-28T07:36:36.760Z,100384.00
2018-09-28T07:39:07.983Z,100390.00
2018-09-28T07:41:35.955Z,100390.00
2018-09-28T07:44:03.536Z,100386.00
2018-09-28T07:46:31.228Z,100392.00
2018-09-28T07:48:59.136Z,100386.00
2018-09-28T07:51:26.647Z,100394.00
2018-09-28T07:53:54.189Z,100397.00
2018-09-28T07:56:21.991Z,100394.00
2018-09-28T07:58:49.595Z,100400.00
2018-09-28T08:01:17.099Z,100400.00
2018-09-28T08:03:44.949Z,100402.00
2018-09-28T08:06:12.440Z,100407.00
2018-09-28T08:08:40.084Z,100408.00
2018-09-28T08:11:08.814Z,100422.00
2018-09-28T08:13:36.417Z,100421.00
2018-09-28T08:16:07.912Z,100419.00
2018-09-28T08:18:35.586Z,100424.00
2018-09-28T08:21:10.045Z,100421.00
2018-09-28T08:23:37.698Z,100431.00
2018-09-28T08:26:15.239Z,100439.00
2018-09-28T08:28:43.058Z,100438.00
2018-09-28T08:31:30.714Z,100443.00
2018-09-28T08:34:08.058Z,100440.00
2018-09-28T08:36:35.622Z,100451.00
2018-09-28T08:39:11.094Z,100452.00
2018-09-28T08:41:42.754Z,100454.00
2018-09-28T08:44:10.325Z,100454.00
2018-09-28T08:46:38.067Z,100457.00
2018-09-28T08:49:10.554Z,100455.00
2018-09-28T08:51:38.329Z,100455.00
2018-09-28T08:54:17.837Z,100461.00
2018-09-28T08:56:45.430Z,100463.00
2018-09-28T08:59:12.963Z,100468.00
2018-09-28T09:01:40.497Z,100469.00
2018-09-28T09:04:08.246Z,100472.00
2018-09-28T09:06:35.838Z,100473.00
2018-09-28T09:09:05.657Z,100479.00
2018-09-28T09:11:33.175Z,100475.00
2018-09-28T09:14:00.719Z,100484.00
2018-09-28T09:16:28.490Z,100483.00
2018-09-28T09:18:56.009Z,100484.00
2018-09-28T09:21:23.515Z,100489.00
2018-09-28T09:23:51.971Z,100486.00
2018-09-28T09:26:19.508Z,100493.00
2018-09-28T09:28:47.063Z,100494.00
2018-09-28T09:31:14.874Z,100496.00
2018-09-28T09:33:42.413Z,100495.00
2018-09-28T09:36:09.963Z,100491.00
2018-09-28T09:38:38.015Z,100499.00
2018-09-28T09:41:06.211Z,100499.00
2018-09-28T09:43:33.726Z,100508.00
2018-09-28T09:46:01.707Z,100513.00
2018-09-28T09:48:29.251Z,100514.00
2018-09-28T09:50:56.962Z,100517.00
2018-09-28T09:53:24.753Z,100526.00
2018-09-28T09:55:52.320Z,100527.00
2018-09-28T09:58:19.868Z,100533.00
2018-09-28T10:00:53.185Z,100530.00
2018-09-28T10:03:26.664Z,100535.00
2018-09-28T10:05:54.748Z,100540.00
2018-09-28T10:08:22.319Z,100541.00
2018-09-28T10:10:49.841Z,100541.00
2018-09-28T10:13:17.645Z,100546.00
2018-09-28T10:15:45.199Z,100541.00
2018-09-28T10:18:12.742Z,100540.00
2018-09-28T10:20:40.310Z,100544.00
2018-09-28T10:23:07.845Z,100541.00
2018-09-28T10:25:35.383Z,100548.00
2018-09-28T10:28:03.229Z,100543.00
2018-09-28T10:30:30.795Z,100548.00
2018-09-28T10:32:58.270Z,100555.00
2018-09-28T10:35:26.110Z,100551.00
2018-09-28T10:37:53.753Z,100552.00
2018-09-28T10:40:21.387Z,100550.00
2018-09-28T10:42:49.129Z,100549.00
2018-09-28T10:45:17.963Z,100552.00
2018-09-28T10:47:45.506Z,100557.00
2018-09-28T10:50:13.562Z,100561.00
2018-09-28T10:52:41.316Z,100569.00
2018-09-28T10:55:08.807Z,100569.00
2018-09-28T10:57:36.419Z,100572.00
2018-09-28T11:00:04.237Z,100569.00
2018-09-28T11:02:31.741Z,100571.00
2018-09-28T11:04:59.580Z,100569.00
2018-09-28T11:07:27.128Z,100564.00
2018-09-28T11:09:54.675Z,100566.00
2018-09-28T11:12:22.227Z,100564.00
2018-09-28T11:14:50.041Z,100566.00
2018-09-28T11:17:17.647Z,100570.00
2018-09-28T11:19:45.170Z,100563.00
2018-09-28T11:22:12.803Z,100566.00
2018-09-28T11:24:40.370Z,100566.00
2018-09-28T11:27:07.929Z,100570.00
2018-09-28T11:29:35.635Z,100572.00
2018-09-28T11:32:03.494Z,100569.00
2018-09-28T11:34:31.028Z,100572.00
2018-09-28T11:36:58.824Z,100574.00
2018-09-28T11:39:26.383Z,100579.00
2018-09-28T11:41:53.898Z,100573.00
2018-09-28T11:44:21.682Z,100569.00
2018-09-28T11:46:49.714Z,100575.00
2018-09-28T11:49:17.317Z,100575.00
2018-09-28T11:51:44.802Z,100573.00
2018-09-28T11:54:12.934Z,100577.00
2018-09-28T11:56:40.453Z,100581.00
2018-09-28T11:59:08.263Z,100572.00
2018-09-28T12:01:35.796Z,100577.00
2018-09-28T12:04:03.330Z,100580.00
2018-09-28T12:06:31.347Z,100591.00
2018-09-28T12:08:58.840Z,100591.00
2018-09-28T12:11:26.387Z,100586.00
2018-09-28T12:13:54.031Z,100593.00
2018-09-28T12:16:21.548Z,100589.00
2018-09-28T12:18:49.226Z,100594.00
2018-09-28T12:21:17.107Z,100590.00
2018-09-28T12:23:44.711Z,100584.00
2018-09-28T12:26:12.247Z,100582.00
2018-09-28T12:28:39.953Z,100579.00
2018-09-28T12:31:07.917Z,100581.00
2018-09-28T12:33:35.530Z,100579.00
2018-09-28T12:36:03.149Z,100580.00
2018-09-28T12:38:30.670Z,100580.00
2018-09-28T12:40:58.214Z,100575.00
2018-09-28T12:43:25.804Z,100581.00
2018-09-28T12:45:53.378Z,100577.00
2018-09-28T12:48:21.562Z,100576.00
2018-09-28T12:50:49.254Z,100577.00
2018-09-28T12:53:16.725Z,100575.00
2018-09-28T12:55:44.397Z,100577.00
2018-09-28T12:58:12.178Z,100575.00
2018-09-28T13:00:39.727Z,100579.00
2018-09-28T13:03:07.286Z,100586.00
2018-09-28T13:05:34.943Z,100578.00
2018-09-28T13:08:02.531Z,100578.00
2018-09-28T13:10:30.073Z,100576.00
2018-09-28T13:12:57.848Z,100582.00
2018-09-28T13:15:25.379Z,100574.00
2018-09-28T13:17:52.927Z,100581.00
2018-09-28T13:20:20.701Z,100585.00
2018-09-28T13:22:48.223Z,100586.00
2018-09-28T13:25:15.876Z,100584.00
2018-09-28T13:27:43.416Z,100587.00
2018-09-28T13:30:25.358Z,100585.00
2018-09-28T13:33:12.764Z,100580.00
2018-09-28T13:35:40.316Z,100575.00
2018-09-28T13:38:07.902Z,100570.00
2018-09-28T13:40:35.805Z,100565.00
2018-09-28T13:43:03.349Z,100568.00
2018-09-28T13:45:30.881Z,100568.00
2018-09-28T13:47:58.566Z,100571.00
2018-09-28T13:50:26.788Z,100577.00
2018-09-28T13:52:54.403Z,100576.00
2018-09-28T13:55:22.200Z,100572.00
2018-09-28T13:57:49.796Z,100571.00
2018-09-28T14:00:17.344Z,100570.00
2018-09-28T14:02:45.062Z,100574.00
2018-09-28T14:05:12.650Z,100574.00
2018-09-28T14:07:40.282Z,100579.00
2018-09-28T14:10:08.418Z,100580.00
2018-09-28T14:12:35.985Z,100582.00
2018-09-28T14:15:03.710Z,100583.00
2018-09-28T14:17:31.333Z,100588.00
2018-09-28T14:19:58.945Z,100587.00
2018-09-28T14:22:26.998Z,100580.00
2018-09-28T14:24:54.456Z,100583.00
2018-09-28T14:27:22.341Z,100583.00
2018-09-28T14:29:49.933Z,100583.00
2018-09-28T14:32:17.553Z,100582.00
2018-09-28T14:34:45.278Z,100580.00
2018-09-28T14:37:17.919Z,100578.00
2018-09-28T14:39:45.470Z,100576.00
2018-09-28T14:42:13.117Z,100579.00
2018-09-28T14:44:41.101Z,100580.00
2018-09-28T14:47:08.703Z,100588.00
2018-09-28T14:49:36.796Z,100585.00
2018-09-28T14:52:04.686Z,100586.00
2018-09-28T14:54:32.519Z,100581.00
2018-09-28T14:57:00.540Z,100591.00
2018-09-28T14:59:28.326Z,100590.00
2018-09-28T15:01:55.857Z,100598.00
2018-09-28T15:04:24.841Z,100589.00
2018-09-28T15:06:52.416Z,100594.00
2018-09-28T15:09:19.867Z,100597.00
2018-09-28T15:11:47.614Z,100591.00
2018-09-28T15:14:15.405Z,100598.00
2018-09-28T15:16:43.030Z,100598.00
2018-09-28T15:19:10.581Z,100597.00
2018-09-28T15:21:38.573Z,100605.00
2018-09-28T15:24:06.234Z,100608.00
2018-09-28T15:26:34.955Z,100614.00
2018-09-28T15:29:02.961Z,100616.00
2018-09-28T15:31:30.590Z,100619.00
2018-09-28T15:33:58.615Z,100618.00
2018-09-28T15:36:27.593Z,100618.00
2018-09-28T15:38:55.119Z,100616.00
2018-09-28T15:41:23.135Z,100615.00
2018-09-28T15:43:50.818Z,100610.00
2018-09-28T15:46:18.435Z,100613.00
2018-09-28T15:48:46.343Z,100619.00
2018-09-28T15:51:15.122Z,100621.00
2018-09-28T15:53:42.760Z,100623.00
2018-09-28T15:56:10.821Z,100626.00
2018-09-28T15:58:38.773Z,100635.00
2018-09-28T16:01:06.363Z,100634.00
2018-09-28T16:03:34.103Z,100642.00
2018-09-28T16:06:01.684Z,100650.00
2018-09-28T16:08:29.311Z,100650.00
2018-09-28T16:10:57.213Z,100650.00
2018-09-28T16:13:24.713Z,100653.00
2018-09-28T16:15:52.396Z,100650.00
2018-09-28T16:18:20.197Z,100651.00
2018-09-28T16:20:47.796Z,100658.00
2018-09-28T16:23:15.342Z,100659.00
2018-09-28T16:25:43.195Z,100661.00
2018-09-28T16:28:10.748Z,100663.00
2018-09-28T16:30:38.249Z,100666.00
2018-09-28T16:33:06.309Z,100671.00
2018-09-28T16:35:33.857Z,100678.00
2018-09-28T16:38:01.403Z,100678.00
2018-09-28T16:40:29.430Z,100680.00
2018-09-28T16:42:56.989Z,100691.00
2018-09-28T16:45:24.557Z,100692.00
2018-09-28T16:47:52.251Z,100691.00
2018-09-28T16:50:19.916Z,100694.00
2018-09-28T16:52:48.614Z,100696.00
2018-09-28T16:55:16.324Z,100701.00
2018-09-28T16:57:44.069Z,100703.00
2018-09-28T17:00:11.683Z,100702.00
2018-09-28T17:02:39.298Z,100702.00
2018-09-28T17:05:06.885Z,100703.00
2018-09-28T17:07:34.811Z,100709.00
2018-09-28T17:10:02.390Z,100711.00
2018-09-28T17:12:30.036Z,100713.00
2018-09-28T17:14:58.472Z,100715.00
2018-09-28T17:17:26.156Z,100717.00
2018-09-28T17:19:53.769Z,100719.00
2018-09-28T17:22:21.523Z,100723.00
2018-09-28T17:24:49.152Z,100730.00
2018-09-28T17:27:16.706Z,100728.00
2018-09-28T17:29:45.019Z,100728.00
2018-09-28T17:32:12.719Z,100737.00
2018-09-28T17:34:40.335Z,100747.00
2018-09-28T17:37:08.406Z,100750.00
2018-09-28T17:39:45.945Z,100752.00
2018-09-28T17:42:13.788Z,100747.00
2018-09-28T17:44:41.395Z,100749.00
2018-09-28T17:47:09.039Z,100755.00
2018-09-28T17:49:36.889Z,100750.00
2018-09-28T17:52:12.511Z,100757.00
2018-09-28T17:54:40.992Z,100769.00
2018-09-28T17:57:08.658Z,100773.00
2018-09-28T17:59:36.261Z,100785.00
2018-09-28T18:02:10.834Z,100792.00
2018-09-28T18:04:38.370Z,100799.00
2018-09-28T18:07:13.584Z,100804.00
2018-09-28T18:09:41.249Z,100809.00
2018-09-28T18:12:24.947Z,100814.00
2018-09-28T18:14:52.526Z,100822.00
2018-09-28T18:17:20.134Z,100830.00
2018-09-28T18:19:47.767Z,100833.00
2018-09-28T18:22:15.390Z,100835.00
2018-09-28T18:24:42.999Z,100835.00
2018-09-28T18:27:10.636Z,100841.00
2018-09-28T18:29:38.192Z,100844.00
2018-09-28T18:32:06.001Z,100849.00
2018-09-28T18:34:33.530Z,100844.00
2018-09-28T18:37:01.048Z,100850.00
2018-09-28T18:39:29.019Z,100851.00
2018-09-28T18:41:56.589Z,100851.00
2018-09-28T18:44:24.085Z,100865.00
2018-09-28T18:46:51.928Z,100864.00
2018-09-28T18:49:19.512Z,100872.00
2018-09-28T18:51:47.111Z,100878.00
2018-09-28T18:54:14.906Z,100877.00
2018-09-28T18:56:43.638Z,100882.00
2018-09-28T18:59:11.157Z,100882.00
2018-09-28T19:01:39.160Z,100884.00
2018-09-28T19:04:06.817Z,100882.00
2018-09-28T19:06:34.369Z,100884.00
2018-09-28T19:09:02.499Z,100882.00
2018-09-28T19:11:30.065Z,100897.00
2018-09-28T19:13:57.672Z,100900.00
2018-09-28T19:16:25.569Z,100891.00
2018-09-28T19:18:53.213Z,100893.00
2018-09-28T19:21:20.872Z,100899.00
2018-09-28T19:23:48.426Z,100899.00
2018-09-28T19:26:15.965Z,100902.00
2018-09-28T19:28:43.513Z,100912.00
2018-09-28T19:31:11.088Z,100916.00
2018-09-28T19:33:38.651Z,100912.00
2018-09-28T19:36:06.915Z,100916.00
2018-09-28T19:38:34.489Z,100919.00
2018-09-28T19:41:02.085Z,100918.00
2018-09-28T19:43:29.838Z,100921.00
2018-09-28T19:45:57.431Z,100924.00
2018-09-28T19:48:24.986Z,100922.00
2018-09-28T19:50:52.755Z,100926.00
2018-09-28T19:53:20.376Z,100931.00
2018-09-28T19:55:47.956Z,100939.00
2018-09-28T19:58:16.367Z,100941.00
2018-09-28T20:00:44.254Z,100946.00
2018-09-28T20:03:13.253Z,100947.00
2018-09-28T20:05:41.257Z,100950.00
2018-09-28T20:08:08.905Z,100957.00
2018-09-28T20:10:36.685Z,100961.00
2018-09-28T20:13:04.585Z,100964.00
2018-09-28T20:15:32.218Z,100971.00
2018-09-28T20:17:59.895Z,100968.00
2018-09-28T20:20:27.725Z,100971.00
2018-09-28T20:22:55.376Z,100976.00
2018-09-28T20:25:23.150Z,100980.00
2018-09-28T20:27:51.008Z,100982.00
2018-09-28T20:30:18.703Z,100985.00
2018-09-28T20:32:46.420Z,100978.00
2018-09-28T20:35:14.399Z,100990.00
2018-09-28T20:37:42.098Z,100978.00
2018-09-28T20:40:09.786Z,100981.00
2018-09-28T20:42:38.049Z,100988.00
2018-09-28T20:45:36.752Z,100982.00
2018-09-28T20:48:04.549Z,100989.00
2018-09-28T20:50:32.355Z,100995.00
2018-09-28T20:53:00.047Z,100999.00
2018-09-28T20:55:28.251Z,100999.00
2018-09-28T20:57:55.941Z,101004.00
2018-09-28T21:00:25.328Z,101008.00
2018-09-28T21:02:53.513Z,101012.00
2018-09-28T21:05:21.250Z,101014.00
2018-09-28T21:07:48.854Z,101011.00
2018-09-28T21:10:16.881Z,101013.00
2018-09-28T21:12:44.525Z,101012.00
2018-09-28T21:15:12.178Z,101017.00
2018-09-28T21:17:40.047Z,101019.00
2018-09-28T21:20:07.684Z,101018.00
2018-09-28T21:22:35.462Z,101017.00
2018-09-28T21:25:03.165Z,101014.00
2018-09-28T21:27:31.590Z,101017.00
2018-09-28T21:29:59.238Z,101017.00
2018-09-28T21:32:27.028Z,101021.00
2018-09-28T21:34:54.685Z,101026.00
2018-09-28T21:37:22.333Z,101031.00
2018-09-28T21:39:50.213Z,101030.00
2018-09-28T21:42:17.855Z,101020.00
2018-09-28T21:44:45.523Z,101027.00
2018-09-28T21:47:13.483Z,101029.00
2018-09-28T21:49:41.197Z,101034.00
2018-09-28T21:52:08.847Z,101044.00
2018-09-28T21:54:36.542Z,101043.00
2018-09-28T21:57:04.235Z,101045.00
2018-09-28T21:59:31.871Z,101046.00
2018-09-28T22:02:00.107Z,101053.00
2018-09-28T22:04:28.101Z,101055.00
2018-09-28T22:06:55.780Z,101054.00
2018-09-28T22:09:23.429Z,101052.00
2018-09-28T22:11:51.995Z,101056.00
2018-09-28T22:14:19.672Z,101056.00
2018-09-28T22:16:47.393Z,101057.00
2018-09-28T22:19:15.137Z,101057.00
2018-09-28T22:21:42.810Z,101053.00
2018-09-28T22:24:10.534Z,101050.00
2018-09-28T22:26:38.622Z,101056.00
2018-09-28T22:29:06.321Z,101058.00
2018-09-28T22:31:34.065Z,101057.00
2018-09-28T22:34:02.049Z,101054.00
2018-09-28T22:36:29.693Z,101050.00
2018-09-28T22:38:57.386Z,101053.00
2018-09-28T22:41:25.353Z,101058.00
2018-09-28T22:43:53.143Z,101063.00
2018-09-28T22:46:20.746Z,101062.00
2018-09-28T22:48:48.476Z,101060.00
2018-09-28T22:51:16.161Z,101058.00
2018-09-28T22:53:43.781Z,101059.00
2018-09-28T22:56:11.662Z,101070.00
2018-09-28T22:58:39.324Z,101079.00
2018-09-28T23:01:07.200Z,101079.00
2018-09-28T23:03:36.102Z,101077.00
2018-09-28T23:06:03.766Z,101072.00
2018-09-28T23:08:31.900Z,101079.00
2018-09-28T23:10:59.525Z,101078.00
2018-09-28T23:13:27.201Z,101082.00
2018-09-28T23:15:55.244Z,101083.00
2018-09-28T23:18:22.878Z,101090.00
2018-09-28T23:20:50.509Z,101092.00
2018-09-28T23:23:18.256Z,101087.00
2018-09-28T23:25:45.950Z,101087.00
2018-09-28T23:28:13.879Z,101099.00
2018-09-28T23:30:42.010Z,101097.00
2018-09-28T23:33:09.655Z,101100.00
2018-09-28T23:35:37.300Z,101105.00
2018-09-28T23:38:05.181Z,101107.00
2018-09-28T23:40:32.813Z,101110.00
2018-09-28T23:43:00.485Z,101113.00
2018-09-28T23:45:28.383Z,101117.00
2018-09-28T23:47:56.046Z,101120.00
2018-09-28T23:50:23.728Z,101117.00
2018-09-28T23:52:51.593Z,101120.00
2018-09-28T23:55:19.225Z,101123.00
2018-09-28T23:57:46.871Z,101123.00
